Time;durP1;ratioP1;P1;durP2;ratioP2;P2;SDS_P1;SDS_P2;PMS_P1;PMS_P2;Temp;Humidity;BMP_temperature;BMP_pressure;BME280_temperature;BME280_humidity;BME280_pressure;Samples;Min_cycle;Max_cycle;Signal;HPM_P1;HPM_P2
2023/09/29 00:00:55;;;;;;;7.25;6.63;;;;;;;;;;4149145;28;20046;-61
2023/09/29 00:02:57;;;;;;;11.50;6.32;;;;;;;;;;4149246;28;20050;-61
2023/09/29 00:04:59;;;;;;;7.32;6.75;;;;;;;;;;4149167;28;20080;-61
2023/09/29 00:07:00;;;;;;;5.72;5.63;;;;;;;;;;4149288;28;20113;-62
2023/09/29 00:09:06;;;;;;;6.20;5.87;;;;;;;;;;4137806;28;20042;-61
2023/09/29 00:11:08;;;;;;;6.40;6.03;;;;;;;;;;4133069;28;20304;-62
2023/09/29 00:13:09;;;;;;;7.27;6.67;;;;;;;;;;4133039;28;20050;-62
2023/09/29 00:15:11;;;;;;;6.10;5.97;;;;;;;;;;4133123;28;20050;-61
2023/09/29 00:17:13;;;;;;;6.57;6.05;;;;;;;;;;4131581;28;20058;-61
2023/09/29 00:19:14;;;;;;;7.53;6.97;;;;;;;;;;4133068;28;20093;-61
2023/09/29 00:21:16;;;;;;;7.35;6.95;;;;;;;;;;4135716;28;20046;-61
2023/09/29 00:23:18;;;;;;;8.40;8.02;;;;;;;;;;4149174;28;20034;-61
2023/09/29 00:25:20;;;;;;;9.50;8.85;;;;;;;;;;4149099;28;20045;-62
2023/09/29 00:27:22;;;;;;;9.25;8.80;;;;;;;;;;4149000;28;20100;-61
2023/09/29 00:29:24;;;;;;;11.10;10.23;;;;;;;;;;4149166;28;20044;-62
2023/09/29 00:31:26;;;;;;;11.05;9.93;;;;;;;;;;4149017;28;20125;-61
2023/09/29 00:33:28;;;;;;;10.25;9.80;;;;;;;;;;4148960;28;20045;-61
2023/09/29 00:35:31;;;;;;;10.63;10.05;;;;;;;;;;4149190;28;20038;-62
2023/09/29 00:37:33;;;;;;;10.07;9.57;;;;;;;;;;4148909;28;20038;-61
2023/09/29 00:39:35;;;;;;;11.60;10.82;;;;;;;;;;4148484;28;20034;-62
2023/09/29 00:41:37;;;;;;;10.50;9.80;;;;;;;;;;4148625;28;20124;-61
2023/09/29 00:43:38;;;;;;;10.85;9.95;;;;;;;;;;4148830;28;20082;-61
2023/09/29 00:45:40;;;;;;;9.83;9.53;;;;;;;;;;4148545;28;20445;-62
2023/09/29 00:47:43;;;;;;;9.10;8.70;;;;;;;;;;4148281;28;20049;-61
2023/09/29 00:49:46;;;;;;;8.68;8.18;;;;;;;;;;4147921;28;20056;-61
2023/09/29 00:51:48;;;;;;;9.00;8.32;;;;;;;;;;4147432;28;20453;-63
2023/09/29 00:53:50;;;;;;;7.90;7.70;;;;;;;;;;4138544;28;20046;-62
2023/09/29 00:55:52;;;;;;;9.15;8.60;;;;;;;;;;4144308;28;20410;-61
2023/09/29 00:57:56;;;;;;;9.05;8.73;;;;;;;;;;4147274;28;20067;-61
2023/09/29 00:59:57;;;;;;;9.13;8.38;;;;;;;;;;4148248;28;20449;-61
2023/09/29 01:02:02;;;;;;;8.18;7.80;;;;;;;;;;4147289;28;20079;-61
2023/09/29 01:04:04;;;;;;;9.02;8.60;;;;;;;;;;4164738;28;20417;-61
2023/09/29 01:06:08;;;;;;;9.18;8.73;;;;;;;;;;4164384;28;20076;-61
2023/09/29 01:08:12;;;;;;;8.57;7.68;;;;;;;;;;4164564;28;20067;-62
2023/09/29 01:10:14;;;;;;;11.07;10.57;;;;;;;;;;4164352;28;20041;-61
2023/09/29 01:12:27;;;;;;;11.52;11.18;;;;;;;;;;4164400;28;20037;-61
2023/09/29 01:14:28;;;;;;;11.80;11.10;;;;;;;;;;4179766;28;20075;-61
2023/09/29 01:16:30;;;;;;;11.47;11.17;;;;;;;;;;4164566;28;20111;-61
2023/09/29 01:18:32;;;;;;;11.03;10.77;;;;;;;;;;4142327;28;20452;-61
2023/09/29 01:20:34;;;;;;;11.10;10.80;;;;;;;;;;4131872;28;20561;-61
2023/09/29 01:22:43;;;;;;;12.25;11.73;;;;;;;;;;4132004;28;20054;-62
2023/09/29 01:24:45;;;;;;;11.27;10.77;;;;;;;;;;4131857;28;20070;-61
2023/09/29 01:26:46;;;;;;;10.93;10.32;;;;;;;;;;4132325;28;20057;-62
2023/09/29 01:28:50;;;;;;;10.30;9.70;;;;;;;;;;4131785;28;20050;-62
2023/09/29 01:30:53;;;;;;;10.13;9.27;;;;;;;;;;4131687;28;20336;-61
2023/09/29 01:32:59;;;;;;;10.15;9.85;;;;;;;;;;4131545;28;20030;-62
2023/09/29 01:35:03;;;;;;;12.85;12.10;;;;;;;;;;4131706;28;20467;-61
2023/09/29 01:37:04;;;;;;;11.23;10.55;;;;;;;;;;4147381;28;20132;-62
2023/09/29 01:39:06;;;;;;;12.60;11.70;;;;;;;;;;4147886;28;20042;-62
2023/09/29 01:41:08;;;;;;;11.25;10.88;;;;;;;;;;4147722;28;20501;-62
2023/09/29 01:43:10;;;;;;;11.38;11.13;;;;;;;;;;4147877;28;20046;-61
2023/09/29 01:45:13;;;;;;;12.77;12.10;;;;;;;;;;4147841;28;20100;-62
2023/09/29 01:47:15;;;;;;;12.23;11.68;;;;;;;;;;4147537;28;20038;-62
2023/09/29 01:49:17;;;;;;;11.80;11.47;;;;;;;;;;4147311;28;20040;-62
2023/09/29 01:51:19;;;;;;;12.85;12.13;;;;;;;;;;4147357;28;20034;-61
2023/09/29 01:53:21;;;;;;;12.00;11.50;;;;;;;;;;4147629;28;20129;-62
2023/09/29 01:55:24;;;;;;;12.88;12.35;;;;;;;;;;4147714;28;20092;-62
2023/09/29 01:57:25;;;;;;;11.30;10.70;;;;;;;;;;4147740;28;20038;-62
2023/09/29 01:59:28;;;;;;;12.27;11.97;;;;;;;;;;4147809;28;20046;-61
2023/09/29 02:01:31;;;;;;;11.70;11.38;;;;;;;;;;4157692;28;20054;-61
2023/09/29 02:03:33;;;;;;;11.93;11.52;;;;;;;;;;4163886;28;20129;-62
2023/09/29 02:05:35;;;;;;;11.63;11.10;;;;;;;;;;4162764;28;20418;-61
2023/09/29 02:07:36;;;;;;;11.55;11.07;;;;;;;;;;4163927;28;20053;-61
2023/09/29 02:09:38;;;;;;;13.07;12.63;;;;;;;;;;4163940;28;20081;-61
2023/09/29 02:11:42;;;;;;;10.93;10.43;;;;;;;;;;4163899;28;20290;-62
2023/09/29 02:13:44;;;;;;;13.05;12.50;;;;;;;;;;4159288;28;20072;-63
2023/09/29 02:15:46;;;;;;;;;;;;;;;;;;4131805;28;20065;-61
2023/09/29 02:17:50;;;;;;;13.02;12.63;;;;;;;;;;4131345;28;19925;-61
2023/09/29 02:19:52;;;;;;;13.07;12.23;;;;;;;;;;4131229;28;20044;-61
2023/09/29 02:21:55;;;;;;;12.15;11.75;;;;;;;;;;4131258;28;20046;-61
2023/09/29 02:23:58;;;;;;;12.05;11.48;;;;;;;;;;4131288;28;20073;-62
2023/09/29 02:26:00;;;;;;;12.23;11.70;;;;;;;;;;4131588;28;20121;-61
2023/09/29 02:28:02;;;;;;;12.07;11.57;;;;;;;;;;4131462;28;20093;-62
2023/09/29 02:30:04;;;;;;;13.05;12.02;;;;;;;;;;4131307;28;20046;-61
2023/09/29 02:32:06;;;;;;;12.38;11.70;;;;;;;;;;4136856;28;20096;-62
2023/09/29 02:34:07;;;;;;;12.85;11.95;;;;;;;;;;4147488;28;20096;-62
2023/09/29 02:36:09;;;;;;;12.73;12.32;;;;;;;;;;4147405;28;20072;-61
2023/09/29 02:38:11;;;;;;;13.93;13.33;;;;;;;;;;4147392;28;20454;-61
2023/09/29 02:40:13;;;;;;;12.40;11.40;;;;;;;;;;4147424;28;20096;-62
2023/09/29 02:42:14;;;;;;;12.43;12.02;;;;;;;;;;4147423;28;20037;-61
2023/09/29 02:44:16;;;;;;;13.25;12.50;;;;;;;;;;4147412;28;20124;-61
2023/09/29 02:46:17;;;;;;;13.65;13.00;;;;;;;;;;4147180;28;20416;-61
2023/09/29 02:48:19;;;;;;;15.18;14.57;;;;;;;;;;4147287;28;20456;-61
2023/09/29 02:50:21;;;;;;;13.93;13.55;;;;;;;;;;4147296;28;20060;-62
2023/09/29 02:52:22;;;;;;;14.07;13.25;;;;;;;;;;4147458;28;20042;-61
2023/09/29 02:54:25;;;;;;;14.80;14.30;;;;;;;;;;4147263;28;20120;-62
2023/09/29 02:56:26;;;;;;;;;;;;;;;;;;4148052;28;20053;-62
2023/09/29 02:58:28;;;;;;;13.95;13.10;;;;;;;;;;4163563;28;19925;-61
2023/09/29 03:00:31;;;;;;;13.05;12.65;;;;;;;;;;4163352;28;20132;-61
2023/09/29 03:02:33;;;;;;;12.05;11.35;;;;;;;;;;4163359;28;20065;-62
2023/09/29 03:04:35;;;;;;;13.57;12.98;;;;;;;;;;4163798;28;20042;-62
2023/09/29 03:06:37;;;;;;;12.90;12.38;;;;;;;;;;4163688;28;20096;-61
2023/09/29 03:08:39;;;;;;;13.75;13.18;;;;;;;;;;4163731;28;20095;-61
2023/09/29 03:10:43;;;;;;;13.98;13.48;;;;;;;;;;4147181;28;20137;-62
2023/09/29 03:12:44;;;;;;;13.93;13.45;;;;;;;;;;4131503;28;20049;-61
2023/09/29 03:14:46;;;;;;;14.57;13.82;;;;;;;;;;4133879;28;20073;-61
2023/09/29 03:16:48;;;;;;;13.17;12.20;;;;;;;;;;4133795;28;20046;-62
2023/09/29 03:18:50;;;;;;;13.37;13.07;;;;;;;;;;4133591;28;20054;-61
2023/09/29 03:20:52;;;;;;;13.30;12.60;;;;;;;;;;4133658;28;20118;-61
2023/09/29 03:22:56;;;;;;;13.50;12.98;;;;;;;;;;4133630;28;20050;-61
2023/09/29 03:24:57;;;;;;;13.23;12.50;;;;;;;;;;4133603;28;20580;-61
2023/09/29 03:26:59;;;;;;;12.15;11.82;;;;;;;;;;4133674;28;20046;-61
2023/09/29 03:29:00;;;;;;;12.43;11.90;;;;;;;;;;4144716;28;20084;-61
2023/09/29 03:31:08;;;;;;;11.77;11.27;;;;;;;;;;4149806;28;20066;-61
2023/09/29 03:33:10;;;;;;;12.18;11.68;;;;;;;;;;4149673;28;20042;-61
2023/09/29 03:35:13;;;;;;;14.20;13.70;;;;;;;;;;4149736;28;20521;-61
2023/09/29 03:37:15;;;;;;;13.93;13.52;;;;;;;;;;4149668;28;20437;-61
2023/09/29 03:39:18;;;;;;;14.77;13.70;;;;;;;;;;4149478;28;20048;-61
2023/09/29 03:41:20;;;;;;;14.43;13.48;;;;;;;;;;4149703;28;20092;-62
2023/09/29 03:43:25;;;;;;;15.40;14.80;;;;;;;;;;4149544;28;20069;-62
2023/09/29 03:45:26;;;;;;;15.25;14.55;;;;;;;;;;4149497;28;20050;-61
2023/09/29 03:47:28;;;;;;;15.20;14.50;;;;;;;;;;4149301;28;20050;-62
2023/09/29 03:49:31;;;;;;;14.82;14.23;;;;;;;;;;4149837;28;20042;-62
2023/09/29 03:51:33;;;;;;;14.38;13.88;;;;;;;;;;4149737;28;20046;-61
2023/09/29 03:53:36;;;;;;;14.15;13.45;;;;;;;;;;4157125;28;20076;-62
2023/09/29 03:55:38;;;;;;;14.55;14.02;;;;;;;;;;4164593;28;20037;-62
2023/09/29 03:57:41;;;;;;;14.43;13.80;;;;;;;;;;4165961;28;20037;-61
2023/09/29 03:59:44;;;;;;;14.00;13.32;;;;;;;;;;4165974;28;20030;-62
2023/09/29 04:01:47;;;;;;;15.80;14.75;;;;;;;;;;4165500;28;20121;-61
2023/09/29 04:03:49;;;;;;;15.02;14.10;;;;;;;;;;4165696;28;20120;-61
2023/09/29 04:05:50;;;;;;;15.73;14.98;;;;;;;;;;4165652;28;20383;-61
2023/09/29 04:07:53;;;;;;;15.38;14.48;;;;;;;;;;4135684;28;20038;-61
2023/09/29 04:09:55;;;;;;;17.67;16.08;;;;;;;;;;4149202;28;20050;-61
2023/09/29 04:11:56;;;;;;;15.23;14.57;;;;;;;;;;4148770;28;20065;-63
2023/09/29 04:13:58;;;;;;;15.83;15.03;;;;;;;;;;4143753;28;20038;-61
2023/09/29 04:16:04;;;;;;;12.85;12.13;;;;;;;;;;4146472;28;20276;-61
2023/09/29 04:18:06;;;;;;;16.13;14.93;;;;;;;;;;4132854;28;20069;-61
2023/09/29 04:20:08;;;;;;;14.50;14.13;;;;;;;;;;4132936;28;20038;-65
2023/09/29 04:22:10;;;;;;;16.00;15.43;;;;;;;;;;4132827;28;20046;-65
2023/09/29 04:24:11;;;;;;;17.20;16.05;;;;;;;;;;4145565;28;20092;-65
2023/09/29 04:26:16;;;;;;;15.05;14.35;;;;;;;;;;4148880;28;20125;-65
2023/09/29 04:28:18;;;;;;;16.67;15.82;;;;;;;;;;4148960;28;20108;-65
2023/09/29 04:30:20;;;;;;;17.43;16.17;;;;;;;;;;4148756;28;20081;-65
2023/09/29 04:32:21;;;;;;;17.83;16.95;;;;;;;;;;4147741;28;20073;-65
2023/09/29 04:34:23;;;;;;;16.10;15.38;;;;;;;;;;4143847;28;20529;-65
2023/09/29 04:36:24;;;;;;;16.30;15.75;;;;;;;;;;4148807;28;20073;-65
2023/09/29 04:38:26;;;;;;;16.88;16.17;;;;;;;;;;4148725;28;20088;-65
2023/09/29 04:40:28;;;;;;;16.60;15.93;;;;;;;;;;4148817;28;20030;-65
2023/09/29 04:42:30;;;;;;;16.58;15.82;;;;;;;;;;4148773;28;20058;-66
2023/09/29 04:44:31;;;;;;;16.95;15.98;;;;;;;;;;4146063;28;20341;-65
2023/09/29 04:46:34;;;;;;;17.30;16.80;;;;;;;;;;4137050;28;20042;-66
2023/09/29 04:48:35;;;;;;;16.83;16.23;;;;;;;;;;4148597;28;20080;-66
2023/09/29 04:50:37;;;;;;;15.85;15.35;;;;;;;;;;4162775;28;20042;-66
2023/09/29 04:52:39;;;;;;;15.75;14.98;;;;;;;;;;4164862;28;20033;-65
2023/09/29 04:54:40;;;;;;;17.77;17.08;;;;;;;;;;4164488;28;20060;-65
2023/09/29 04:56:42;;;;;;;15.20;14.80;;;;;;;;;;4148019;28;20042;-66
2023/09/29 04:58:43;;;;;;;16.40;15.67;;;;;;;;;;4148493;28;20037;-65
2023/09/29 05:00:45;;;;;;;18.75;17.40;;;;;;;;;;4146893;28;20038;-70
2023/09/29 05:02:47;;;;;;;16.57;15.80;;;;;;;;;;4148527;28;20073;-70
2023/09/29 05:04:48;;;;;;;16.83;16.13;;;;;;;;;;4147778;28;20052;-70
2023/09/29 05:06:51;;;;;;;16.80;15.88;;;;;;;;;;4147133;28;20077;-70
2023/09/29 05:08:53;;;;;;;16.58;16.08;;;;;;;;;;4138992;28;20042;-70
2023/09/29 05:10:56;;;;;;;16.65;15.73;;;;;;;;;;4146409;28;20080;-70
2023/09/29 05:12:57;;;;;;;16.52;15.85;;;;;;;;;;4146299;28;20126;-70
2023/09/29 05:14:59;;;;;;;16.25;15.55;;;;;;;;;;4143421;28;20034;-67
2023/09/29 05:17:00;;;;;;;16.25;15.40;;;;;;;;;;4148094;28;20414;-69
2023/09/29 05:19:02;;;;;;;15.57;15.07;;;;;;;;;;4148069;28;20042;-70
2023/09/29 05:21:04;;;;;;;17.30;16.02;;;;;;;;;;4148053;28;20046;-70
2023/09/29 05:23:06;;;;;;;17.98;16.95;;;;;;;;;;4148098;28;20073;-71
2023/09/29 05:25:07;;;;;;;17.42;16.13;;;;;;;;;;4148205;28;20049;-70
2023/09/29 05:27:09;;;;;;;15.25;14.75;;;;;;;;;;4148010;28;20045;-70
2023/09/29 05:29:13;;;;;;;16.48;15.38;;;;;;;;;;4148085;28;20042;-70
2023/09/29 05:31:15;;;;;;;16.58;15.38;;;;;;;;;;4146850;28;20121;-69
2023/09/29 05:33:17;;;;;;;16.80;15.85;;;;;;;;;;4147382;28;20040;-70
2023/09/29 05:35:18;;;;;;;15.57;15.07;;;;;;;;;;4147706;28;20034;-70
2023/09/29 05:37:21;;;;;;;14.88;14.13;;;;;;;;;;4147767;28;20327;-70
2023/09/29 05:39:23;;;;;;;12.80;12.50;;;;;;;;;;4147802;28;20122;-70
2023/09/29 05:41:24;;;;;;;15.13;14.73;;;;;;;;;;4164139;28;20508;-69
2023/09/29 05:43:26;;;;;;;13.93;13.07;;;;;;;;;;4164282;28;20047;-70
2023/09/29 05:45:28;;;;;;;15.45;14.45;;;;;;;;;;4158541;28;20621;-69
2023/09/29 05:47:29;;;;;;;14.25;13.55;;;;;;;;;;4143554;28;20465;-69
2023/09/29 05:49:32;;;;;;;16.35;15.45;;;;;;;;;;4147842;28;20565;-70
2023/09/29 05:51:34;;;;;;;16.23;15.02;;;;;;;;;;4147934;28;20072;-69
2023/09/29 05:53:35;;;;;;;15.27;14.63;;;;;;;;;;4146340;28;20517;-70
2023/09/29 05:55:37;;;;;;;15.05;14.30;;;;;;;;;;4147677;28;20038;-70
2023/09/29 05:57:39;;;;;;;14.45;13.95;;;;;;;;;;4147624;28;20077;-70
2023/09/29 05:59:41;;;;;;;12.77;12.40;;;;;;;;;;4147569;28;20045;-69
2023/09/29 06:01:43;;;;;;;15.25;14.43;;;;;;;;;;4147363;28;20124;-69
2023/09/29 06:03:44;;;;;;;17.25;15.93;;;;;;;;;;4147776;28;20561;-69
2023/09/29 06:05:46;;;;;;;14.98;14.38;;;;;;;;;;4147699;28;20046;-69
2023/09/29 06:07:48;;;;;;;16.27;15.23;;;;;;;;;;4147780;28;20050;-69
2023/09/29 06:09:49;;;;;;;13.45;12.75;;;;;;;;;;4147587;28;20045;-69
2023/09/29 06:11:51;;;;;;;17.63;16.30;;;;;;;;;;4147560;28;20077;-69
2023/09/29 06:13:53;;;;;;;17.37;16.20;;;;;;;;;;4147639;28;20166;-69
2023/09/29 06:15:59;;;;;;;16.58;15.63;;;;;;;;;;4147642;28;20038;-69
2023/09/29 06:18:00;;;;;;;14.15;13.75;;;;;;;;;;4147349;28;20042;-70
2023/09/29 06:20:03;;;;;;;16.52;15.85;;;;;;;;;;4147416;28;20038;-70
2023/09/29 06:22:05;;;;;;;14.50;13.65;;;;;;;;;;4147451;28;20045;-69
2023/09/29 06:24:07;;;;;;;13.75;12.85;;;;;;;;;;4147431;28;20046;-70
2023/09/29 06:26:08;;;;;;;13.53;12.83;;;;;;;;;;4147368;28;20398;-70
2023/09/29 06:28:10;;;;;;;12.80;12.27;;;;;;;;;;4147609;28;20329;-68
2023/09/29 06:30:12;;;;;;;13.45;12.93;;;;;;;;;;4147326;28;20069;-69
2023/09/29 06:32:13;;;;;;;12.00;11.57;;;;;;;;;;4147518;28;20037;-69
2023/09/29 06:34:16;;;;;;;11.53;11.27;;;;;;;;;;4147285;28;20041;-70
2023/09/29 06:36:18;;;;;;;;;;;;;;;;;;4147708;28;20498;-70
2023/09/29 06:38:19;;;;;;;11.25;10.88;;;;;;;;;;4147276;28;19925;-70
2023/09/29 06:40:22;;;;;;;10.52;10.13;;;;;;;;;;4155366;28;20041;-69
2023/09/29 06:42:24;;;;;;;10.70;10.30;;;;;;;;;;4163534;28;20396;-70
2023/09/29 06:44:26;;;;;;;7.78;7.30;;;;;;;;;;4163619;28;20148;-69
2023/09/29 06:46:28;;;;;;;8.10;7.75;;;;;;;;;;4159285;28;20074;-70
2023/09/29 06:48:29;;;;;;;5.82;5.72;;;;;;;;;;4149151;28;20050;-70
2023/09/29 06:50:31;;;;;;;7.82;7.28;;;;;;;;;;4150305;28;20050;-70
2023/09/29 06:52:33;;;;;;;6.65;6.45;;;;;;;;;;4150471;28;20045;-70
2023/09/29 06:54:35;;;;;;;6.35;5.85;;;;;;;;;;4150214;28;20042;-70
2023/09/29 06:56:36;;;;;;;9.10;6.50;;;;;;;;;;4150190;28;20069;-70
2023/09/29 06:58:38;;;;;;;7.53;4.97;;;;;;;;;;4150285;28;20034;-70
2023/09/29 07:00:40;;;;;;;6.20;5.72;;;;;;;;;;4150133;28;20053;-70
2023/09/29 07:02:41;;;;;;;7.95;5.60;;;;;;;;;;4150107;28;20050;-70
2023/09/29 07:04:44;;;;;;;7.05;5.07;;;;;;;;;;4150397;28;20104;-70
2023/09/29 07:06:46;;;;;;;6.93;6.28;;;;;;;;;;4150077;28;20194;-70
2023/09/29 07:08:48;;;;;;;6.47;6.10;;;;;;;;;;4150342;28;20486;-70
2023/09/29 07:10:49;;;;;;;7.43;6.90;;;;;;;;;;4150055;28;20049;-71
2023/09/29 07:12:51;;;;;;;5.83;5.63;;;;;;;;;;4149851;28;20038;-70
2023/09/29 07:14:53;;;;;;;5.70;5.40;;;;;;;;;;4150111;28;20102;-70
2023/09/29 07:16:55;;;;;;;6.15;4.00;;;;;;;;;;4148773;28;20049;-70
2023/09/29 07:18:57;;;;;;;5.80;5.25;;;;;;;;;;4150136;28;20042;-70
2023/09/29 07:21:00;;;;;;;5.70;5.38;;;;;;;;;;4150132;28;20513;-71
2023/09/29 07:23:03;;;;;;;5.25;4.82;;;;;;;;;;4149906;28;20050;-70
2023/09/29 07:25:04;;;;;;;4.72;4.40;;;;;;;;;;4149711;28;20552;-70
2023/09/29 07:27:08;;;;;;;6.18;4.30;;;;;;;;;;4149809;28;20125;-70
2023/09/29 07:29:11;;;;;;;5.05;4.90;;;;;;;;;;4149735;28;20038;-69
2023/09/29 07:31:12;;;;;;;5.03;4.82;;;;;;;;;;4150036;28;20045;-70
2023/09/29 07:33:14;;;;;;;6.80;4.30;;;;;;;;;;4149792;28;20038;-70
2023/09/29 07:35:16;;;;;;;6.25;5.80;;;;;;;;;;4149674;28;20280;-71
2023/09/29 07:37:17;;;;;;;4.53;4.20;;;;;;;;;;4149579;28;20038;-70
2023/09/29 07:39:20;;;;;;;5.32;4.90;;;;;;;;;;4163050;28;20291;-70
2023/09/29 07:41:21;;;;;;;;;;;;;;;;;;4166568;28;20049;-70
2023/09/29 07:43:23;;;;;;;4.53;3.95;;;;;;;;;;4165837;28;19925;-70
2023/09/29 07:45:25;;;;;;;4.57;4.47;;;;;;;;;;4165877;28;20041;-70
2023/09/29 07:47:26;;;;;;;5.90;5.47;;;;;;;;;;4154175;28;20046;-70
2023/09/29 07:49:28;;;;;;;4.53;4.43;;;;;;;;;;4149513;28;20052;-70
2023/09/29 07:51:30;;;;;;;4.20;3.80;;;;;;;;;;4149445;28;20125;-70
2023/09/29 07:53:32;;;;;;;12.70;4.72;;;;;;;;;;4148055;28;20041;-70
2023/09/29 07:55:33;;;;;;;7.27;4.30;;;;;;;;;;4149427;28;20077;-71
2023/09/29 07:57:35;;;;;;;3.78;3.53;;;;;;;;;;4149457;28;20393;-71
2023/09/29 07:59:37;;;;;;;6.07;3.90;;;;;;;;;;4149215;28;20096;-71
2023/09/29 08:01:42;;;;;;;3.75;3.65;;;;;;;;;;4149088;28;20066;-70
2023/09/29 08:03:44;;;;;;;4.97;4.57;;;;;;;;;;4149556;28;20050;-71
2023/09/29 08:05:46;;;;;;;4.45;4.15;;;;;;;;;;4149271;28;20069;-71
2023/09/29 08:07:48;;;;;;;3.97;3.70;;;;;;;;;;4149139;28;20046;-71
2023/09/29 08:09:50;;;;;;;5.35;3.95;;;;;;;;;;4149055;28;20522;-71
2023/09/29 08:11:51;;;;;;;4.13;2.80;;;;;;;;;;4149206;28;20053;-71
2023/09/29 08:13:54;;;;;;;11.18;3.03;;;;;;;;;;4148999;28;20482;-70
2023/09/29 08:15:55;;;;;;;4.22;3.92;;;;;;;;;;4149194;28;20041;-71
2023/09/29 08:17:57;;;;;;;3.97;3.60;;;;;;;;;;4149257;28;20046;-71
2023/09/29 08:19:59;;;;;;;5.25;3.47;;;;;;;;;;4149265;28;20379;-71
2023/09/29 08:22:00;;;;;;;8.88;3.60;;;;;;;;;;4149040;28;20053;-71
2023/09/29 08:24:02;;;;;;;7.00;3.42;;;;;;;;;;4149233;28;20042;-71
2023/09/29 08:26:04;;;;;;;3.13;2.85;;;;;;;;;;4148839;28;20092;-71
2023/09/29 08:28:06;;;;;;;2.83;2.63;;;;;;;;;;4149105;28;20073;-70
2023/09/29 08:30:08;;;;;;;2.65;2.45;;;;;;;;;;4148825;28;20110;-70
2023/09/29 08:32:10;;;;;;;5.18;2.95;;;;;;;;;;4149101;28;20042;-69
2023/09/29 08:34:11;;;;;;;2.40;2.30;;;;;;;;;;4146155;28;20034;-71
2023/09/29 08:36:13;;;;;;;5.80;2.28;;;;;;;;;;4131210;28;20301;-71
2023/09/29 08:38:15;;;;;;;3.55;2.05;;;;;;;;;;4132588;28;20038;-72
2023/09/29 08:40:17;;;;;;;2.90;2.67;;;;;;;;;;4147305;28;20038;-71
2023/09/29 08:42:36;;;;;;;5.32;2.38;;;;;;;;;;4164949;28;20384;-71
2023/09/29 08:44:39;;;;;;;2.42;2.30;;;;;;;;;;4164888;28;20477;-70
2023/09/29 08:46:43;;;;;;;2.92;1.73;;;;;;;;;;4157620;28;20046;-70
2023/09/29 08:48:46;;;;;;;1.50;1.40;;;;;;;;;;4148420;28;20422;-70
2023/09/29 08:50:55;;;;;;;7.40;2.13;;;;;;;;;;4148699;28;20049;-70
2023/09/29 08:52:59;;;;;;;3.63;1.80;;;;;;;;;;4148439;28;20112;-72
2023/09/29 08:55:02;;;;;;;7.53;2.30;;;;;;;;;;4148390;28;20449;-71
2023/09/29 08:57:05;;;;;;;3.20;1.92;;;;;;;;;;4148583;28;20050;-71
2023/09/29 08:59:07;;;;;;;2.10;1.50;;;;;;;;;;4146922;28;20532;-71
2023/09/29 09:01:09;;;;;;;2.50;1.90;;;;;;;;;;4147841;28;20469;-71
2023/09/29 09:03:11;;;;;;;3.08;1.40;;;;;;;;;;4147942;28;20037;-71
2023/09/29 09:05:14;;;;;;;3.42;1.90;;;;;;;;;;4147725;28;20071;-71
2023/09/29 09:07:17;;;;;;;3.40;1.73;;;;;;;;;;4147631;28;20129;-72
2023/09/29 09:09:23;;;;;;;2.00;1.60;;;;;;;;;;4147607;28;20042;-71
2023/09/29 09:11:26;;;;;;;1.60;1.50;;;;;;;;;;4146976;28;20046;-72
2023/09/29 09:13:27;;;;;;;1.70;1.42;;;;;;;;;;4147440;28;20425;-71
2023/09/29 09:15:30;;;;;;;5.22;2.00;;;;;;;;;;4147610;28;20069;-70
2023/09/29 09:17:34;;;;;;;3.58;1.60;;;;;;;;;;4147406;28;20091;-72
2023/09/29 09:19:50;;;;;;;1.58;1.50;;;;;;;;;;4147459;28;20038;-71
2023/09/29 09:21:52;;;;;;;3.28;1.63;;;;;;;;;;4147318;28;20112;-71
2023/09/29 09:23:54;;;;;;;1.95;1.23;;;;;;;;;;4147660;28;20038;-70
2023/09/29 09:25:57;;;;;;;3.35;1.30;;;;;;;;;;4147388;28;20128;-72
2023/09/29 09:27:59;;;;;;;2.03;1.38;;;;;;;;;;4147528;28;20042;-71
2023/09/29 09:30:01;;;;;;;2.90;1.30;;;;;;;;;;4147354;28;20046;-72
2023/09/29 09:32:05;;;;;;;6.43;1.20;;;;;;;;;;4161721;28;20042;-72
2023/09/29 09:34:08;;;;;;;2.35;1.52;;;;;;;;;;4163473;28;20038;-72
2023/09/29 09:36:10;;;;;;;2.30;1.58;;;;;;;;;;4163572;28;20044;-72
2023/09/29 09:38:13;;;;;;;2.72;1.55;;;;;;;;;;4163803;28;20041;-72
2023/09/29 09:40:15;;;;;;;3.90;1.70;;;;;;;;;;4163329;28;20037;-72
2023/09/29 09:42:17;;;;;;;1.25;1.15;;;;;;;;;;4163556;28;20378;-72
2023/09/29 09:44:20;;;;;;;7.43;1.95;;;;;;;;;;4156529;28;20394;-71
2023/09/29 09:46:22;;;;;;;4.35;1.10;;;;;;;;;;4147157;28;20096;-72
2023/09/29 09:48:24;;;;;;;;;;;;;;;;;;4147540;28;20502;-72
2023/09/29 09:50:30;;;;;;;1.57;1.17;;;;;;;;;;4146969;28;19921;-72
2023/09/29 09:52:32;;;;;;;2.55;1.00;;;;;;;;;;4147121;28;20284;-71
2023/09/29 09:54:46;;;;;;;6.47;1.30;;;;;;;;;;4140507;28;20042;-71
2023/09/29 09:56:58;;;;;;;1.75;1.05;;;;;;;;;;4139004;28;20033;-71
2023/09/29 09:59:00;;;;;;;;;;;;;;;;;;4137725;28;20096;-70
2023/09/29 10:01:01;;;;;;;1.87;1.30;;;;;;;;;;4090795;28;1298825;-71
2023/09/29 10:03:04;;;;;;;3.00;1.20;;;;;;;;;;4125317;28;20050;-68
2023/09/29 10:05:13;;;;;;;3.25;2.00;;;;;;;;;;4128878;28;20041;-72
2023/09/29 10:07:14;;;;;;;1.80;0.95;;;;;;;;;;4141136;28;20073;-70
2023/09/29 10:09:16;;;;;;;0.85;0.85;;;;;;;;;;4139951;28;20042;-70
2023/09/29 10:11:26;;;;;;;6.78;1.77;;;;;;;;;;4141300;28;20069;-71
2023/09/29 10:13:33;;;;;;;14.00;1.05;;;;;;;;;;4147490;28;20073;-72
2023/09/29 10:15:37;;;;;;;0.80;0.80;;;;;;;;;;4146186;28;20192;-72
2023/09/29 10:17:39;;;;;;;2.10;0.85;;;;;;;;;;4145910;28;20050;-72
2023/09/29 10:19:41;;;;;;;2.45;0.88;;;;;;;;;;4144402;28;20061;-71
2023/09/29 10:21:45;;;;;;;3.80;1.00;;;;;;;;;;4147404;28;20458;-71
2023/09/29 10:23:50;;;;;;;1.10;0.90;;;;;;;;;;4147159;28;20060;-70
2023/09/29 10:25:56;;;;;;;2.50;0.80;;;;;;;;;;4144599;28;20038;-71
2023/09/29 10:28:01;;;;;;;2.60;0.90;;;;;;;;;;4141713;28;20049;-71
2023/09/29 10:30:16;;;;;;;0.90;0.90;;;;;;;;;;4147042;28;20034;-71
2023/09/29 10:32:20;;;;;;;2.05;0.95;;;;;;;;;;4145086;28;20442;-70
2023/09/29 10:34:22;;;;;;;3.10;0.90;;;;;;;;;;4139090;28;20039;-71
2023/09/29 10:36:25;;;;;;;0.80;0.80;;;;;;;;;;4148138;28;20076;-70
2023/09/29 10:38:27;;;;;;;4.28;0.80;;;;;;;;;;4149228;28;20128;-69
2023/09/29 10:40:32;;;;;;;1.40;1.13;;;;;;;;;;4152408;28;20045;-72
2023/09/29 10:42:37;;;;;;;1.35;0.98;;;;;;;;;;4140860;28;20030;-71
2023/09/29 10:44:47;;;;;;;2.67;0.80;;;;;;;;;;4141356;28;20053;-71
2023/09/29 10:46:49;;;;;;;3.10;1.00;;;;;;;;;;4143908;28;20104;-70
2023/09/29 10:48:55;;;;;;;3.95;1.00;;;;;;;;;;4146353;28;20053;-71
2023/09/29 10:50:56;;;;;;;3.40;0.80;;;;;;;;;;4143406;28;20038;-71
2023/09/29 10:52:58;;;;;;;1.30;0.90;;;;;;;;;;4141716;28;20406;-70
2023/09/29 10:54:59;;;;;;;2.35;1.00;;;;;;;;;;4141035;28;20042;-69
2023/09/29 10:57:01;;;;;;;1.33;1.23;;;;;;;;;;4140356;28;20046;-70
2023/09/29 10:59:06;;;;;;;4.28;1.13;;;;;;;;;;4142762;28;20120;-71
2023/09/29 11:01:08;;;;;;;1.85;0.80;;;;;;;;;;4140134;28;20528;-71
2023/09/29 11:03:11;;;;;;;2.78;1.52;;;;;;;;;;4142597;28;20418;-71
2023/09/29 11:05:13;;;;;;;1.60;0.77;;;;;;;;;;4136489;28;20052;-70
2023/09/29 11:07:15;;;;;;;2.25;0.80;;;;;;;;;;4141909;28;20129;-71
2023/09/29 11:09:19;;;;;;;;;;;;;;;;;;4141455;28;20077;-70
2023/09/29 11:11:21;;;;;;;0.77;0.77;;;;;;;;;;4138721;28;19921;-71
2023/09/29 11:13:23;;;;;;;;;;;;;;;;;;4144719;28;20042;-71
2023/09/29 11:15:26;;;;;;;1.25;0.70;;;;;;;;;;4146400;28;19926;-70
2023/09/29 11:17:28;;;;;;;2.20;1.00;;;;;;;;;;4144233;28;20046;-70
2023/09/29 11:19:31;;;;;;;1.75;0.80;;;;;;;;;;4142154;28;20088;-69
2023/09/29 11:21:34;;;;;;;1.83;0.77;;;;;;;;;;4141056;28;20084;-71
2023/09/29 11:23:44;;;;;;;3.25;0.73;;;;;;;;;;4149710;28;20050;-70
2023/09/29 11:25:46;;;;;;;3.55;1.35;;;;;;;;;;4149749;28;20037;-70
2023/09/29 11:27:51;;;;;;;1.15;0.80;;;;;;;;;;4133856;28;20450;-69
2023/09/29 11:29:52;;;;;;;1.67;0.75;;;;;;;;;;4149641;28;20423;-71
2023/09/29 11:31:54;;;;;;;0.68;0.68;;;;;;;;;;4140869;28;20556;-71
2023/09/29 11:33:56;;;;;;;;;;;;;;;;;;4145606;28;20088;-71
2023/09/29 11:35:58;;;;;;;1.83;0.80;;;;;;;;;;4143685;28;19992;-70
2023/09/29 11:38:03;;;;;;;1.58;0.93;;;;;;;;;;4149468;28;20120;-71
2023/09/29 11:40:10;;;;;;;1.85;0.80;;;;;;;;;;4155124;28;20033;-69
2023/09/29 11:42:12;;;;;;;1.52;0.70;;;;;;;;;;4165758;28;20045;-67
2023/09/29 11:44:14;;;;;;;0.70;0.70;;;;;;;;;;4165873;28;20113;-67
2023/09/29 11:46:16;;;;;;;3.05;0.80;;;;;;;;;;4163311;28;20041;-67
2023/09/29 11:48:17;;;;;;;1.67;0.63;;;;;;;;;;4147564;28;20033;-67
2023/09/29 11:50:19;;;;;;;0.70;0.70;;;;;;;;;;4144940;28;20038;-67
2023/09/29 11:52:21;;;;;;;0.77;0.60;;;;;;;;;;4149428;28;20041;-67
2023/09/29 11:54:23;;;;;;;4.88;0.80;;;;;;;;;;4149182;28;20085;-67
2023/09/29 11:56:24;;;;;;;2.35;0.70;;;;;;;;;;4149363;28;20397;-67
2023/09/29 11:58:26;;;;;;;2.25;0.73;;;;;;;;;;4149159;28;20069;-67
2023/09/29 12:00:28;;;;;;;1.88;0.70;;;;;;;;;;4149072;28;20104;-67
2023/09/29 12:02:29;;;;;;;0.70;0.70;;;;;;;;;;4147755;28;20528;-67
2023/09/29 12:04:31;;;;;;;3.28;0.70;;;;;;;;;;4149217;28;20136;-67
2023/09/29 12:06:33;;;;;;;;;;;;;;;;;;4149626;28;20046;-67